Flight Track Log - Related Links

Times and Time Zones

All times are in EDT time to prevent confusion due to time zone crossing. See the EJA947 flight status page for this flight to view local times or setup timezone preferences in your user account.

Time Position Orientation Groundspeed Altitude Reporting Facility
EDT Latitude Longitude Course Direction KTS MPH feet Rate Location/Type
Tue 08:10:58 AM 29.6058 -95.6556 206° Southwest 128 147 900  Level Houston Center
Tue 08:12:03 AM 29.5617 -95.6806 206° Southwest 218 251 3,400 2,033 Climbing Houston Center
Tue 08:12:59 AM 29.6167 -95.7072 337° Northwest 279 321 5,000 774 Climbing Houston Center
Tue 08:14:07 AM 29.7047 -95.6825 14° North 313 360 5,000 891 Level Houston Center
Tue 08:15:07 AM 29.7836 -95.6625 12° North 298 343 6,900 2,477 Climbing Houston Center
Tue 08:15:56 AM 29.8606 -95.6425 13° North 328 377 9,500 2,732 Climbing Houston Center
Tue 08:17:10 AM 29.9711 -95.6114 14° North 353 406 12,500 2,426 Climbing Houston Center
Tue 08:18:12 AM 30.0800 -95.6119 360° North 381 438 15,000 2,098 Climbing Houston Center
Tue 08:19:13 AM 30.1889 -95.6211 356° North 390 449 16,800 1,610 Climbing Houston Center
Tue 08:20:15 AM 30.2978 -95.6308 356° North 391 450 18,300 1,610 Climbing Houston Center
Tue 08:21:16 AM 30.4278 -95.6433 355° North 390 449 20,100 1,610 Climbing Houston Center
Tue 08:22:18 AM 30.5369 -95.6558 354° North 394 453 21,600 1,452 Climbing Houston Center
Tue 08:23:20 AM 30.6392 -95.7072 337° Northwest 401 461 23,100 1,463 Climbing Houston Center
Tue 08:24:21 AM 30.7394 -95.7614 335° Northwest 397 457 24,600 1,463 Climbing Houston Center
Tue 08:25:23 AM 30.8436 -95.8167 336° Northwest 402 463 26,100 1,500 Climbing Houston Center
Tue 08:26:25 AM 30.9511 -95.8744 335° Northwest 416 479 27,700 1,512 Climbing Houston Center
Tue 08:27:26 AM 31.0589 -95.9331 335° Northwest 421 484 29,200 1,604 Climbing Houston Center
Tue 08:28:06 AM 31.1508 -95.9764 338° Northwest 421 484 30,400 1,620 Climbing Fort Worth Center
Tue 08:29:06 AM 31.2619 -96.0183 342° North 421 484 31,900 1,550 Climbing Fort Worth Center
Tue 08:30:06 AM 31.3772 -96.0653 341° North 426 490 33,500 1,400 Climbing Fort Worth Center
Tue 08:31:06 AM 31.4842 -96.1078 341° North 432 497 34,700 1,350 Climbing Fort Worth Center
Tue 08:32:06 AM 31.6017 -96.1522 342° North 432 497 36,200 1,400 Climbing Fort Worth Center
Tue 08:33:06 AM 31.7169 -96.1972 342° North 439 505 37,500 900 Climbing Fort Worth Center
Tue 08:34:06 AM 31.8447 -96.2517 340° North 445 512 38,000 250 Climbing Fort Worth Center
Tue 08:35:06 AM 31.9683 -96.2967 343° North 450 518 38,000  Level Fort Worth Center
Tue 08:36:06 AM 32.0919 -96.3442 342° North 463 533 38,000  Level Fort Worth Center
Tue 08:37:06 AM 32.2175 -96.3942 341° North 469 540 38,000  Level Fort Worth Center
Tue 08:38:06 AM 32.3286 -96.4372 342° North 474 545 38,000  Level Fort Worth Center
Tue 08:39:06 AM 32.4583 -96.4853 343° North 469 540 38,000  Level Fort Worth Center
Tue 08:40:06 AM 32.5819 -96.5333 342° North 469 540 38,000  Level Fort Worth Center
Tue 08:41:06 AM 32.7094 -96.5814 342° North 469 540 38,000  Level Fort Worth Center
Tue 08:42:06 AM 32.8453 -96.5950 355° North 474 545 38,000 500 Level Fort Worth Center
Tue 08:43:06 AM 32.9828 -96.5592 12° North 490 564 39,000 500 Climbing Fort Worth Center
Tue 08:44:06 AM 33.1064 -96.6075 342° North 465 535 39,000  Level Fort Worth Center
Tue 08:45:06 AM 33.2278 -96.6708 336° Northwest 465 535 39,000  Level Fort Worth Center
Tue 08:46:06 AM 33.3514 -96.7294 338° Northwest 477 549 39,000  Level Fort Worth Center
Tue 08:47:06 AM 33.4728 -96.7883 338° Northwest 477 549 39,000  Level Fort Worth Center
Tue 08:48:06 AM 33.5939 -96.8550 335° Northwest 472 543 39,000 200 Level Fort Worth Center
Tue 08:49:06 AM 33.7175 -96.9164 338° Northwest 477 549 39,400 500 Climbing Fort Worth Center
Tue 08:50:06 AM 33.8492 -96.9833 337° Northwest 472 543 40,000 300 Climbing Fort Worth Center
Tue 08:51:06 AM 33.9703 -97.0453 337° Northwest 472 543 40,000  Level Fort Worth Center
Tue 08:52:06 AM 34.0894 -97.1075 337° Northwest 472 543 40,000  Level Fort Worth Center
Tue 08:53:06 AM 34.1939 -97.1625 336° Northwest 466 536 40,000  Level Fort Worth Center
Tue 08:54:06 AM 34.3214 -97.2147 341° North 466 536 40,000  Level Fort Worth Center
Tue 08:55:06 AM 34.4508 -97.2625 343° North 472 543 40,000  Level Fort Worth Center
Tue 08:56:06 AM 34.5781 -97.3128 342° North 482 555 40,000  Level Fort Worth Center
Tue 08:57:06 AM 34.7075 -97.3631 342° North 482 555 40,000  Level Fort Worth Center
Tue 08:58:06 AM 34.8369 -97.4111 343° North 482 555 40,000  Level Fort Worth Center
Tue 08:59:06 AM 34.9642 -97.4617 342° North 482 555 40,000  Level Fort Worth Center
Tue 09:00:42 AM 35.1733 -97.5381 343° North 484 557 40,000  Level Kansas City Center
Tue 09:01:42 AM 35.3044 -97.5894 342° North 487 560 40,000  Level Kansas City Center
Tue 09:02:44 AM 35.4236 -97.6678 332° Northwest 477 549 40,000  Level Kansas City Center
Tue 09:03:44 AM 35.5297 -97.7594 325° Northwest 466 536 40,000  Level Kansas City Center
Tue 09:04:47 AM 35.6367 -97.8542 324° Northwest 470 541 40,000  Level Kansas City Center
Tue 09:05:48 AM 35.7439 -97.9497 324° Northwest 473 544 40,000  Level Kansas City Center
Tue 09:06:49 AM 35.8553 -98.0378 327° Northwest 474 545 40,000  Level Kansas City Center
Tue 09:07:51 AM 35.9753 -98.1081 335° Northwest 485 558 40,000  Level Kansas City Center
Tue 09:08:51 AM 36.1186 -98.1972 333° Northwest 482 555 40,000  Level Kansas City Center
Tue 09:09:53 AM 36.2381 -98.2706 334° Northwest 480 552 40,000  Level Kansas City Center
Tue 09:10:53 AM 36.3578 -98.3442 334° Northwest 479 551 40,000  Level Kansas City Center
Tue 09:11:54 AM 36.4747 -98.4186 333° Northwest 476 548 40,000  Level Kansas City Center
Tue 09:12:55 AM 36.5950 -98.4914 334° Northwest 478 550 40,000  Level Kansas City Center
Tue 09:13:56 AM 36.7144 -98.5675 334° Northwest 481 554 40,000  Level Kansas City Center
Tue 09:14:00 AM 36.7182 -98.5675 334° Northwest  Level FlightAware Approximate
Tue 09:15:00 AM 36.8347 -98.6425 333° Northwest 482 555 40,000  Level Kansas City Center
Tue 09:15:59 AM 36.9550 -98.7172 334° Northwest 483 556 40,000  Level Kansas City Center
Tue 09:17:01 AM 37.0847 -98.7972 334° Northwest 481 554 40,000  Level Kansas City Center
Tue 09:18:04 AM 37.2061 -98.8761 333° Northwest 486 559 40,000  Level Kansas City Center
Tue 09:19:05 AM 37.3289 -98.9550 333° Northwest 490 564 40,000  Level Kansas City Center
Tue 09:20:07 AM 37.4500 -99.0328 333° Northwest 489 563 40,000  Level Kansas City Center
Tue 09:21:07 AM 37.5706 -99.1111 333° Northwest 487 560 40,000  Level Kansas City Center
Tue 09:22:09 AM 37.6931 -99.1900 333° Northwest 490 564 40,000  Level Kansas City Center
Tue 09:23:10 AM 37.8158 -99.2692 333° Northwest 493 567 40,000  Level Kansas City Center
Tue 09:24:11 AM 37.9372 -99.3467 333° Northwest 489 563 40,000  Level Kansas City Center
Tue 09:25:11 AM 38.0800 -99.4411 333° Northwest 484 557 40,000  Level Kansas City Center
Tue 09:26:15 AM 38.1933 -99.5153 333° Northwest 485 558 40,000  Level Kansas City Center
Tue 09:27:16 AM 38.3294 -99.6039 333° Northwest 489 563 40,000  Level Kansas City Center
Tue 09:28:18 AM 38.4436 -99.6800 332° Northwest 487 560 40,000  Level Kansas City Center
Tue 09:29:17 AM 38.5775 -99.7694 332° Northwest 486 559 40,000  Level Kansas City Center
Tue 09:29:56 AM 38.6533 -99.8192 333° Northwest 488 562 40,000  Level Denver Center
Tue 09:30:56 AM 38.7681 -99.8953 333° Northwest 487 560 40,000  Level Denver Center
Tue 09:31:57 AM 38.8822 -99.9719 332° Northwest 483 556 40,000  Level Denver Center
Tue 09:32:58 AM 39.0061 -100.0544 333° Northwest 483 556 40,000  Level Denver Center
Tue 09:33:59 AM 39.1400 -100.1453 332° Northwest 487 560 40,000  Level Denver Center
Tue 09:35:00 AM 39.2578 -100.2231 333° Northwest 495 570 40,000  Level Denver Center
Tue 09:36:01 AM 39.3878 -100.2731 343° North 509 586 40,000  Level Denver Center
Tue 09:37:02 AM 39.5417 -100.3342 343° North 516 594 40,000  Level Denver Center
Tue 09:38:03 AM 39.6717 -100.3856 343° North 511 588 40,000  Level Denver Center
Tue 09:39:04 AM 39.7997 -100.4358 343° North 503 579 40,000  Level Denver Center
Tue 09:40:05 AM 39.9494 -100.4950 343° North 503 579 40,000  Level Denver Center
Tue 09:41:06 AM 40.0775 -100.5450 343° North 500 575 40,000  Level Denver Center
Tue 09:42:07 AM 40.2042 -100.5950 343° North 497 572 40,000  Level Denver Center
Tue 09:43:08 AM 40.3419 -100.6775 335° Northwest 487 560 40,000  Level Denver Center
Tue 09:44:09 AM 40.4592 -100.7478 335° Northwest 484 557 40,000  Level Denver Center
Tue 09:45:11 AM 40.5772 -100.8186 336° Northwest 484 557 40,000  Level Denver Center
Tue 09:46:12 AM 40.7147 -100.9031 335° Northwest 483 556 40,000  Level Denver Center
Tue 09:47:13 AM 40.8342 -100.9758 335° Northwest 483 556 40,000  Level Denver Center
Tue 09:48:14 AM 40.9531 -101.0497 335° Northwest 486 559 40,000  Level Denver Center
Tue 09:49:15 AM 41.0897 -101.1333 335° Northwest 483 556 40,000  Level Denver Center
Tue 09:50:16 AM 41.1875 -101.1944 335° Northwest 484 557 40,000  Level Denver Center
Tue 09:51:17 AM 41.3242 -101.2786 335° Northwest 483 556 40,000  Level Denver Center
Tue 09:52:19 AM 41.4594 -101.3625 335° Northwest 480 552 40,000  Level Denver Center
Tue 09:53:20 AM 41.5753 -101.4361 335° Northwest 481 554 40,000  Level Denver Center
Tue 09:54:21 AM 41.6914 -101.5108 334° Northwest 483 556 40,000  Level Denver Center
Tue 09:55:22 AM 41.8297 -101.5967 335° Northwest 490 564 40,000  Level Denver Center
Tue 09:56:24 AM 41.9475 -101.6706 335° Northwest 488 562 40,000  Level Denver Center
Tue 09:57:25 AM 42.0858 -101.7589 335° Northwest 492 566 40,000  Level Denver Center
Tue 09:58:26 AM 42.2036 -101.8364 334° Northwest 492 566 40,000  Level Denver Center
Tue 09:59:28 AM 42.3322 -101.9172 335° Northwest 490 564 40,000  Level Denver Center
Tue 10:00:29 AM 42.4497 -101.9925 335° Northwest 488 562 40,000  Level Denver Center
Tue 10:01:30 AM 42.5842 -102.0825 334° Northwest 485 558 40,000  Level Denver Center
Tue 10:02:32 AM 42.7011 -102.1583 335° Northwest 487 560 40,000  Level Denver Center
Tue 10:03:33 AM 42.8386 -102.2483 334° Northwest 491 565 40,000  Level Denver Center
Tue 10:04:35 AM 42.9583 -102.3267 334° Northwest 498 573 40,000  Level Denver Center
Tue 10:05:36 AM 43.0781 -102.4058 334° Northwest 501 577 40,000  Level Denver Center
Tue 10:06:37 AM 43.2158 -102.5069 332° Northwest 503 579 40,000  Level Denver Center
Tue 10:07:39 AM 43.3317 -102.5933 332° Northwest 497 572 40,000  Level Denver Center
Tue 10:08:40 AM 43.4678 -102.6950 332° Northwest 498 573 40,000  Level Denver Center
Tue 10:09:42 AM 43.5831 -102.7811 332° Northwest 495 570 40,000  Level Denver Center
Tue 10:10:43 AM 43.6972 -102.8689 331° Northwest 493 567 40,000  Level Denver Center
Tue 10:11:45 AM 43.8322 -102.9697 332° Northwest 493 567 40,000  Level Denver Center
Tue 10:12:46 AM 43.9458 -103.0572 331° Northwest 491 565 40,000  Level Denver Center
Tue 10:13:48 AM 44.0769 -103.1581 331° Northwest 487 560 40,000  Level Denver Center
Tue 10:14:49 AM 44.1908 -103.2444 331° Northwest 487 560 40,000  Level Denver Center
Tue 10:15:51 AM 44.3219 -103.3461 331° Northwest 484 557 40,000  Level Denver Center
Tue 10:16:52 AM 44.4347 -103.4333 331° Northwest 484 557 40,000  Level Denver Center
Tue 10:17:54 AM 44.5442 -103.5200 331° Northwest 484 557 40,000  Level Denver Center
Tue 10:18:55 AM 44.6778 -103.6236 331° Northwest 482 555 40,000  Level Denver Center
Tue 10:19:57 AM 44.7908 -103.7147 330° Northwest 487 560 40,000  Level Denver Center
Tue 10:20:59 AM 44.9228 -103.8178 331° Northwest 488 562 40,000  Level Denver Center
Tue 10:22:00 AM 45.0169 -103.8944 330° Northwest 489 563 40,000  Level Denver Center
Tue 10:22:30 AM 45.0933 -103.9528 332° Northwest 489 563 40,000  Level Salt Lake Center
Tue 10:23:32 AM 45.2161 -104.0503 331° Northwest 492 566 40,000  Level Salt Lake Center
Tue 10:24:33 AM 45.3333 -104.1461 330° Northwest 488 562 40,000  Level Salt Lake Center
Tue 10:25:35 AM 45.4525 -104.2414 331° Northwest 490 564 40,000  Level Salt Lake Center
Tue 10:26:36 AM 45.5708 -104.3389 330° Northwest 491 565 40,000  Level Salt Lake Center
Tue 10:27:38 AM 45.6883 -104.4350 330° Northwest 489 563 40,000  Level Salt Lake Center
Tue 10:28:39 AM 45.8208 -104.5439 330° Northwest 488 562 40,000  Level Salt Lake Center
Tue 10:29:41 AM 45.9519 -104.6514 330° Northwest 487 560 40,000  Level Salt Lake Center
Tue 10:30:42 AM 46.0639 -104.7456 330° Northwest 488 562 40,000  Level Salt Lake Center
Tue 10:31:44 AM 46.1761 -104.8378 330° Northwest 487 560 40,000  Level Salt Lake Center
Tue 10:32:45 AM 46.3083 -104.9492 330° Northwest 489 563 40,000  Level Salt Lake Center
Tue 10:33:46 AM 46.4206 -105.0431 330° Northwest 489 563 40,000  Level Salt Lake Center
Tue 10:34:48 AM 46.5494 -105.1525 330° Northwest 484 557 40,000  Level Salt Lake Center
Tue 10:35:50 AM 46.6519 -105.2400 330° Northwest 489 563 40,000  Level Salt Lake Center
Tue 10:36:51 AM 46.7667 -105.3397 329° Northwest 486 559 40,000  Level Salt Lake Center
Tue 10:37:53 AM 46.9072 -105.4611 329° Northwest 486 559 40,000  Level Salt Lake Center
Tue 10:38:54 AM 47.0231 -105.5611 330° Northwest 485 558 40,000  Level Salt Lake Center
Tue 10:39:56 AM 47.1400 -105.6639 329° Northwest 487 560 40,000  Level Salt Lake Center
Tue 10:40:57 AM 47.2550 -105.7647 329° Northwest 484 557 40,000  Level Salt Lake Center
Tue 10:41:59 AM 47.3722 -105.8681 329° Northwest 487 560 40,000 -49 Level Salt Lake Center
Tue 10:43:00 AM 47.4883 -105.9689 330° Northwest 485 558 39,900  Descending Salt Lake Center
Tue 10:44:02 AM 47.6031 -106.0722 329° Northwest 483 556 40,000 49 Climbing Salt Lake Center
Tue 10:45:03 AM 47.7189 -106.1756 329° Northwest 484 557 40,000  Level Salt Lake Center
Tue 10:46:05 AM 47.8347 -106.2797 329° Northwest 486 559 40,000  Level Salt Lake Center
Tue 10:47:07 AM 47.9728 -106.4039 329° Northwest 486 559 40,000  Level Salt Lake Center
Tue 10:48:08 AM 48.0867 -106.5092 328° Northwest 482 555 40,000  Level Salt Lake Center
Tue 10:49:10 AM 48.2006 -106.6158 328° Northwest 482 555 40,000  Level Salt Lake Center
Tue 10:50:11 AM 48.2800 -106.7728 307° West 475 547 40,000  Level Salt Lake Center
Tue 10:51:13 AM 48.3533 -106.9389 304° West 477 549 40,000  Level Salt Lake Center
Tue 10:52:15 AM 48.4272 -107.1036 304° West 477 549 40,000  Level Salt Lake Center
Tue 10:53:16 AM 48.5006 -107.2697 304° West 477 549 40,000  Level Salt Lake Center
Tue 10:54:18 AM 48.5750 -107.4372 304° West 480 552 40,000  Level Salt Lake Center
Tue 10:55:20 AM 48.6631 -107.6406 303° West 483 556 40,000  Level Salt Lake Center
Tue 10:56:21 AM 48.7397 -107.8136 304° West 486 559 40,000  Level Salt Lake Center
Tue 10:57:12 AM 48.7833 -107.9833 291° West 480 552 40,000  Level Winnipeg Center
Tue 10:58:12 AM 48.8500 -108.1500 301° West 490 564 40,000  Level Winnipeg Center
Tue 10:59:12 AM 48.9167 -108.3167 301° West 480 552 40,000  Level Winnipeg Center
Tue 10:59:48 AM 48.9667 -108.4000 312° West 480 552 40,000  Level Edmonton Center
Tue 11:00:12 AM 49.0000 -108.5000 297° West 480 552 40,000  Level Winnipeg Center
Tue 11:01:12 AM 49.0667 -108.6667 301° West 480 552 40,000  Level Winnipeg Center
Tue 11:02:12 AM 49.1333 -108.8333 301° West 480 552 40,000  Level Winnipeg Center
Tue 11:03:12 AM 49.2000 -109.0000 302° West 480 552 40,000  Level Winnipeg Center
Tue 11:03:48 AM 49.2500 -109.0833 313° West 470 541 40,000  Level Edmonton Center
Tue 11:04:12 AM 49.2833 -109.1833 297° West 480 552 40,000  Level Winnipeg Center
Tue 11:05:12 AM 49.3500 -109.3500 302° West 480 552 40,000  Level Winnipeg Center
Tue 11:05:48 AM 49.3833 -109.4167 308° West 470 541 40,000  Level Edmonton Center
Tue 11:06:48 AM 49.4333 -109.6333 290° West 470 541 40,000  Level Edmonton Center
Tue 11:07:48 AM 49.5000 -109.7833 304° West 470 541 40,000  Level Edmonton Center
Tue 11:08:12 AM 49.5333 -109.9000 294° West 480 552 40,000  Level Winnipeg Center
Tue 11:08:48 AM 49.5500 -110.0000 284° West 470 541 40,000  Level Edmonton Center
Tue 11:09:48 AM 49.6000 -110.1667 295° West 470 541 40,000  Level Edmonton Center
Tue 11:10:48 AM 49.6500 -110.3833 290° West 480 552 40,000  Level Edmonton Center
Tue 11:11:48 AM 49.7167 -110.5667 299° West 480 552 40,000  Level Edmonton Center
Tue 11:12:48 AM 49.7500 -110.7333 287° West 470 541 40,000  Level Edmonton Center
Tue 11:13:48 AM 49.8167 -110.9500 296° West 480 552 40,000  Level Edmonton Center
Tue 11:14:48 AM 49.8500 -111.1333 286° West 470 541 40,000  Level Edmonton Center
Tue 11:15:48 AM 49.9000 -111.3333 291° West 470 541 40,000  Level Edmonton Center
Tue 11:16:48 AM 49.9667 -111.5167 300° West 470 541 40,000 -850 Level Edmonton Center
Tue 11:17:48 AM 50.0000 -111.6833 287° West 470 541 38,300 -2,100 Descending Edmonton Center
Tue 11:18:48 AM 50.0500 -111.8667 293° West 450 518 35,800 -2,500 Descending Edmonton Center
Tue 11:19:12 AM 50.0833 -111.9833 294° West 450 518 34,800 -2,286 Descending Winnipeg Center
Tue 11:20:12 AM 50.1333 -112.1500 295° West 450 518 32,600 -2,313 Descending Winnipeg Center
Tue 11:20:48 AM 50.1500 -112.2333 287° West 440 506 31,100 -2,375 Descending Edmonton Center
Tue 11:21:48 AM 50.1833 -112.4167 286° West 430 495 28,800 -2,350 Descending Edmonton Center
Tue 11:22:48 AM 50.2333 -112.5833 295° West 430 495 26,400 -2,250 Descending Edmonton Center
Tue 11:23:48 AM 50.2833 -112.7500 295° West 420 483 24,300 -2,200 Descending Edmonton Center
Tue 11:24:48 AM 50.3167 -112.9500 285° West 410 472 22,000 -2,250 Descending Edmonton Center
Tue 11:25:48 AM 50.3833 -113.0833 308° West 400 460 19,800 -2,200 Descending Edmonton Center
Tue 11:26:48 AM 50.4500 -113.2167 308° West 390 449 17,600 -2,150 Descending Edmonton Center
Tue 11:27:48 AM 50.5333 -113.3333 318° Northwest 380 437 15,500 -1,950 Descending Edmonton Center
Tue 11:28:48 AM 50.6000 -113.4167 322° Northwest 340 391 13,700 -1,750 Descending Edmonton Center
Tue 11:29:48 AM 50.6500 -113.5500 301° West 290 334 12,000 -1,350 Descending Edmonton Center
Tue 11:30:48 AM 50.7000 -113.6333 313° West 260 299 11,000 -1,000 Descending Edmonton Center
Tue 11:31:48 AM 50.7333 -113.7167 302° West 250 288 10,000 -1,000 Descending Edmonton Center
Tue 11:32:48 AM 50.7833 -113.8167 308° West 250 288 9,000 -1,050 Descending Edmonton Center
Tue 11:33:48 AM 50.8333 -113.8667 328° Northwest 250 288 7,900 -1,050 Descending Edmonton Center
Tue 11:34:48 AM 50.8667 -113.9667 298° West 250 288 6,900 -1,000 Descending Edmonton Center
Tue 11:35:48 AM 50.9333 -114.0000 343° North 250 288 5,900 -1,000 Descending Edmonton Center
Tue 11:36:48 AM 51.0000 -114.0500 335° Northwest 200 230 4,900 -900 Descending Edmonton Center
Tue 11:37:48 AM 51.0333 -114.0500 360° North 150 173 4,100 -700 Descending Edmonton Center
Tue 11:38:48 AM 51.0667 -114.0333 17° North 130 150 3,500 -600 Descending Edmonton Center

Login

Don't have an account? Register now (free) for customized features, flight alerts, and more!